sensor_id;sensor_type;location;lat;lon;timestamp;P1;durP1;ratioP1;P2;durP2;ratioP2
179;SDS011;78;48.788;9.010;2023-04-28T00:01:26;24.03;;;7.80;;
179;SDS011;78;48.788;9.010;2023-04-28T00:03:52;24.17;;;7.43;;
179;SDS011;78;48.788;9.010;2023-04-28T00:06:19;25.80;;;8.00;;
179;SDS011;78;48.788;9.010;2023-04-28T00:08:45;22.20;;;7.20;;
179;SDS011;78;48.788;9.010;2023-04-28T00:11:11;22.37;;;7.30;;
179;SDS011;78;48.788;9.010;2023-04-28T00:13:37;26.03;;;8.17;;
179;SDS011;78;48.788;9.010;2023-04-28T00:16:03;23.27;;;7.40;;
179;SDS011;78;48.788;9.010;2023-04-28T00:18:29;27.03;;;7.97;;
179;SDS011;78;48.788;9.010;2023-04-28T00:20:57;28.53;;;7.30;;
179;SDS011;78;48.788;9.010;2023-04-28T00:23:23;31.93;;;8.90;;
179;SDS011;78;48.788;9.010;2023-04-28T00:25:52;23.37;;;8.10;;
179;SDS011;78;48.788;9.010;2023-04-28T00:28:19;23.70;;;7.93;;
179;SDS011;78;48.788;9.010;2023-04-28T00:30:45;25.23;;;7.77;;
179;SDS011;78;48.788;9.010;2023-04-28T00:33:11;24.23;;;8.30;;
179;SDS011;78;48.788;9.010;2023-04-28T00:35:37;23.17;;;7.40;;
179;SDS011;78;48.788;9.010;2023-04-28T00:38:03;25.90;;;8.30;;
179;SDS011;78;48.788;9.010;2023-04-28T00:40:33;23.20;;;8.30;;
179;SDS011;78;48.788;9.010;2023-04-28T00:42:59;26.90;;;8.67;;
179;SDS011;78;48.788;9.010;2023-04-28T00:45:25;24.10;;;7.90;;
179;SDS011;78;48.788;9.010;2023-04-28T00:47:51;22.50;;;7.30;;
179;SDS011;78;48.788;9.010;2023-04-28T00:50:17;32.20;;;8.37;;
179;SDS011;78;48.788;9.010;2023-04-28T00:52:43;27.10;;;8.50;;
179;SDS011;78;48.788;9.010;2023-04-28T00:55:09;25.23;;;8.40;;
179;SDS011;78;48.788;9.010;2023-04-28T00:57:35;25.50;;;8.87;;
179;SDS011;78;48.788;9.010;2023-04-28T01:00:02;24.10;;;8.67;;
179;SDS011;78;48.788;9.010;2023-04-28T01:02:28;28.63;;;8.77;;
179;SDS011;78;48.788;9.010;2023-04-28T01:04:55;24.63;;;8.80;;
179;SDS011;78;48.788;9.010;2023-04-28T01:07:22;24.67;;;8.53;;
179;SDS011;78;48.788;9.010;2023-04-28T01:09:48;24.87;;;8.73;;
179;SDS011;78;48.788;9.010;2023-04-28T01:12:14;25.60;;;8.77;;
179;SDS011;78;48.788;9.010;2023-04-28T01:14:40;24.90;;;8.40;;
179;SDS011;78;48.788;9.010;2023-04-28T01:17:06;23.40;;;7.70;;
179;SDS011;78;48.788;9.010;2023-04-28T01:19:32;27.70;;;8.90;;
179;SDS011;78;48.788;9.010;2023-04-28T01:21:58;24.60;;;9.00;;
179;SDS011;78;48.788;9.010;2023-04-28T01:24:24;28.17;;;8.97;;
179;SDS011;78;48.788;9.010;2023-04-28T01:26:50;26.47;;;9.37;;
179;SDS011;78;48.788;9.010;2023-04-28T01:29:16;23.53;;;8.40;;
179;SDS011;78;48.788;9.010;2023-04-28T01:31:42;23.80;;;8.30;;
179;SDS011;78;48.788;9.010;2023-04-28T01:34:08;25.90;;;8.90;;
179;SDS011;78;48.788;9.010;2023-04-28T01:36:34;24.10;;;8.70;;
179;SDS011;78;48.788;9.010;2023-04-28T01:39:00;25.37;;;8.17;;
179;SDS011;78;48.788;9.010;2023-04-28T01:41:26;27.87;;;8.07;;
179;SDS011;78;48.788;9.010;2023-04-28T01:43:52;25.03;;;7.70;;
179;SDS011;78;48.788;9.010;2023-04-28T01:46:18;23.17;;;7.30;;
179;SDS011;78;48.788;9.010;2023-04-28T01:48:44;27.20;;;7.40;;
179;SDS011;78;48.788;9.010;2023-04-28T01:51:11;24.97;;;7.90;;
179;SDS011;78;48.788;9.010;2023-04-28T01:53:37;26.57;;;7.10;;
179;SDS011;78;48.788;9.010;2023-04-28T01:56:03;22.57;;;7.40;;
179;SDS011;78;48.788;9.010;2023-04-28T01:58:29;24.13;;;7.00;;
179;SDS011;78;48.788;9.010;2023-04-28T02:00:55;26.80;;;7.13;;
179;SDS011;78;48.788;9.010;2023-04-28T02:03:21;24.03;;;7.10;;
179;SDS011;78;48.788;9.010;2023-04-28T02:05:47;20.57;;;6.80;;
179;SDS011;78;48.788;9.010;2023-04-28T02:08:13;25.00;;;7.50;;
179;SDS011;78;48.788;9.010;2023-04-28T02:10:39;22.00;;;6.50;;
179;SDS011;78;48.788;9.010;2023-04-28T02:13:05;19.97;;;6.40;;
179;SDS011;78;48.788;9.010;2023-04-28T02:15:33;26.33;;;7.00;;
179;SDS011;78;48.788;9.010;2023-04-28T02:17:59;21.03;;;6.20;;
179;SDS011;78;48.788;9.010;2023-04-28T02:20:25;22.93;;;6.80;;
179;SDS011;78;48.788;9.010;2023-04-28T02:22:51;20.50;;;6.50;;
179;SDS011;78;48.788;9.010;2023-04-28T02:25:17;22.47;;;6.90;;
179;SDS011;78;48.788;9.010;2023-04-28T02:27:43;21.07;;;6.40;;
179;SDS011;78;48.788;9.010;2023-04-28T02:30:10;21.33;;;6.70;;
179;SDS011;78;48.788;9.010;2023-04-28T02:32:36;23.93;;;7.00;;
179;SDS011;78;48.788;9.010;2023-04-28T02:35:02;22.47;;;6.97;;
179;SDS011;78;48.788;9.010;2023-04-28T02:37:28;28.00;;;6.47;;
179;SDS011;78;48.788;9.010;2023-04-28T02:39:54;21.13;;;5.90;;
179;SDS011;78;48.788;9.010;2023-04-28T02:42:20;24.80;;;6.47;;
179;SDS011;78;48.788;9.010;2023-04-28T02:44:46;20.90;;;6.60;;
179;SDS011;78;48.788;9.010;2023-04-28T02:47:12;23.40;;;6.60;;
179;SDS011;78;48.788;9.010;2023-04-28T02:49:38;20.90;;;6.40;;
179;SDS011;78;48.788;9.010;2023-04-28T02:52:03;22.27;;;6.77;;
179;SDS011;78;48.788;9.010;2023-04-28T02:54:29;20.27;;;6.13;;
179;SDS011;78;48.788;9.010;2023-04-28T02:56:58;23.03;;;6.80;;
179;SDS011;78;48.788;9.010;2023-04-28T02:59:24;24.47;;;7.30;;
179;SDS011;78;48.788;9.010;2023-04-28T03:01:51;23.20;;;6.90;;
179;SDS011;78;48.788;9.010;2023-04-28T03:04:17;23.43;;;7.00;;
179;SDS011;78;48.788;9.010;2023-04-28T03:06:43;22.23;;;6.83;;
179;SDS011;78;48.788;9.010;2023-04-28T03:09:09;25.63;;;7.10;;
179;SDS011;78;48.788;9.010;2023-04-28T03:11:35;21.03;;;7.20;;
179;SDS011;78;48.788;9.010;2023-04-28T03:14:01;21.70;;;7.10;;
179;SDS011;78;48.788;9.010;2023-04-28T03:16:27;22.63;;;7.03;;
179;SDS011;78;48.788;9.010;2023-04-28T03:18:53;22.27;;;7.73;;
179;SDS011;78;48.788;9.010;2023-04-28T03:21:19;22.97;;;7.47;;
179;SDS011;78;48.788;9.010;2023-04-28T03:23:45;26.50;;;7.70;;
179;SDS011;78;48.788;9.010;2023-04-28T03:26:11;21.80;;;7.10;;
179;SDS011;78;48.788;9.010;2023-04-28T03:28:37;24.80;;;7.47;;
179;SDS011;78;48.788;9.010;2023-04-28T03:31:03;20.50;;;6.67;;
179;SDS011;78;48.788;9.010;2023-04-28T03:33:29;21.60;;;6.63;;
179;SDS011;78;48.788;9.010;2023-04-28T03:35:55;22.27;;;6.93;;
179;SDS011;78;48.788;9.010;2023-04-28T03:38:21;21.80;;;6.93;;
179;SDS011;78;48.788;9.010;2023-04-28T03:40:47;20.97;;;6.73;;
179;SDS011;78;48.788;9.010;2023-04-28T03:43:13;22.40;;;6.90;;
179;SDS011;78;48.788;9.010;2023-04-28T03:45:39;23.93;;;7.63;;
179;SDS011;78;48.788;9.010;2023-04-28T03:48:06;22.47;;;7.63;;
179;SDS011;78;48.788;9.010;2023-04-28T03:50:32;24.97;;;7.17;;
179;SDS011;78;48.788;9.010;2023-04-28T03:52:58;21.97;;;6.97;;
179;SDS011;78;48.788;9.010;2023-04-28T03:55:24;20.47;;;6.70;;
179;SDS011;78;48.788;9.010;2023-04-28T03:57:51;23.93;;;7.10;;
179;SDS011;78;48.788;9.010;2023-04-28T04:00:17;20.20;;;6.50;;
179;SDS011;78;48.788;9.010;2023-04-28T04:02:43;20.77;;;6.60;;
179;SDS011;78;48.788;9.010;2023-04-28T04:05:09;22.80;;;6.57;;
179;SDS011;78;48.788;9.010;2023-04-28T04:07:35;20.57;;;6.07;;
179;SDS011;78;48.788;9.010;2023-04-28T04:10:01;23.13;;;6.20;;
179;SDS011;78;48.788;9.010;2023-04-28T04:12:27;22.37;;;6.50;;
179;SDS011;78;48.788;9.010;2023-04-28T04:14:53;23.00;;;6.73;;
179;SDS011;78;48.788;9.010;2023-04-28T04:17:20;21.23;;;6.40;;
179;SDS011;78;48.788;9.010;2023-04-28T04:19:47;21.23;;;6.50;;
179;SDS011;78;48.788;9.010;2023-04-28T04:22:13;21.63;;;6.50;;
179;SDS011;78;48.788;9.010;2023-04-28T04:24:39;20.60;;;6.30;;
179;SDS011;78;48.788;9.010;2023-04-28T04:27:05;29.43;;;6.37;;
179;SDS011;78;48.788;9.010;2023-04-28T04:29:31;22.53;;;6.03;;
179;SDS011;78;48.788;9.010;2023-04-28T04:31:57;21.20;;;6.37;;
179;SDS011;78;48.788;9.010;2023-04-28T04:34:22;22.20;;;6.60;;
179;SDS011;78;48.788;9.010;2023-04-28T04:36:48;25.07;;;6.57;;
179;SDS011;78;48.788;9.010;2023-04-28T04:39:14;22.77;;;6.50;;
179;SDS011;78;48.788;9.010;2023-04-28T04:41:40;21.30;;;6.20;;
179;SDS011;78;48.788;9.010;2023-04-28T04:44:06;22.60;;;6.43;;
179;SDS011;78;48.788;9.010;2023-04-28T04:46:32;22.70;;;6.70;;
179;SDS011;78;48.788;9.010;2023-04-28T04:48:58;22.30;;;6.40;;
179;SDS011;78;48.788;9.010;2023-04-28T04:51:24;22.60;;;6.57;;
179;SDS011;78;48.788;9.010;2023-04-28T04:53:52;20.20;;;6.50;;
179;SDS011;78;48.788;9.010;2023-04-28T04:56:17;26.53;;;6.73;;
179;SDS011;78;48.788;9.010;2023-04-28T04:58:43;21.07;;;6.60;;
179;SDS011;78;48.788;9.010;2023-04-28T05:01:10;23.10;;;6.50;;
179;SDS011;78;48.788;9.010;2023-04-28T05:03:36;21.00;;;6.57;;
179;SDS011;78;48.788;9.010;2023-04-28T05:06:01;20.80;;;6.60;;
179;SDS011;78;48.788;9.010;2023-04-28T05:08:28;22.90;;;8.00;;
179;SDS011;78;48.788;9.010;2023-04-28T05:10:54;25.50;;;7.90;;
179;SDS011;78;48.788;9.010;2023-04-28T05:13:20;22.10;;;7.03;;
179;SDS011;78;48.788;9.010;2023-04-28T05:15:46;22.30;;;7.23;;
179;SDS011;78;48.788;9.010;2023-04-28T05:18:12;22.10;;;7.30;;
179;SDS011;78;48.788;9.010;2023-04-28T05:20:38;22.40;;;7.83;;
179;SDS011;78;48.788;9.010;2023-04-28T05:23:05;26.33;;;7.67;;
179;SDS011;78;48.788;9.010;2023-04-28T05:25:32;21.47;;;7.17;;
179;SDS011;78;48.788;9.010;2023-04-28T05:27:58;21.40;;;7.20;;
179;SDS011;78;48.788;9.010;2023-04-28T05:30:28;23.10;;;7.53;;
179;SDS011;78;48.788;9.010;2023-04-28T05:32:55;22.70;;;7.77;;
179;SDS011;78;48.788;9.010;2023-04-28T05:35:21;20.37;;;7.20;;
179;SDS011;78;48.788;9.010;2023-04-28T05:37:48;21.70;;;7.17;;
179;SDS011;78;48.788;9.010;2023-04-28T05:40:14;22.43;;;7.17;;
179;SDS011;78;48.788;9.010;2023-04-28T05:42:40;26.03;;;7.83;;
179;SDS011;78;48.788;9.010;2023-04-28T05:45:07;21.73;;;7.00;;
179;SDS011;78;48.788;9.010;2023-04-28T05:47:33;24.33;;;7.40;;
179;SDS011;78;48.788;9.010;2023-04-28T05:50:00;24.50;;;8.23;;
179;SDS011;78;48.788;9.010;2023-04-28T05:52:26;23.23;;;7.80;;
179;SDS011;78;48.788;9.010;2023-04-28T05:54:53;21.73;;;7.63;;
179;SDS011;78;48.788;9.010;2023-04-28T05:57:19;22.53;;;7.90;;
179;SDS011;78;48.788;9.010;2023-04-28T05:59:46;23.47;;;7.83;;
179;SDS011;78;48.788;9.010;2023-04-28T06:02:12;25.77;;;8.50;;
179;SDS011;78;48.788;9.010;2023-04-28T06:04:38;25.07;;;7.90;;
179;SDS011;78;48.788;9.010;2023-04-28T06:07:04;25.37;;;8.17;;
179;SDS011;78;48.788;9.010;2023-04-28T06:09:31;22.17;;;8.07;;
179;SDS011;78;48.788;9.010;2023-04-28T06:11:57;22.63;;;7.60;;
179;SDS011;78;48.788;9.010;2023-04-28T06:14:24;22.20;;;8.03;;
179;SDS011;78;48.788;9.010;2023-04-28T06:16:50;27.23;;;8.37;;
179;SDS011;78;48.788;9.010;2023-04-28T06:19:16;23.60;;;8.37;;
179;SDS011;78;48.788;9.010;2023-04-28T06:21:45;22.70;;;7.90;;
179;SDS011;78;48.788;9.010;2023-04-28T06:24:15;23.20;;;8.43;;
179;SDS011;78;48.788;9.010;2023-04-28T06:26:41;23.13;;;7.90;;
179;SDS011;78;48.788;9.010;2023-04-28T06:29:07;22.30;;;7.67;;
179;SDS011;78;48.788;9.010;2023-04-28T06:31:33;22.50;;;7.77;;
179;SDS011;78;48.788;9.010;2023-04-28T06:33:58;24.10;;;7.83;;
179;SDS011;78;48.788;9.010;2023-04-28T06:36:25;25.57;;;8.20;;
179;SDS011;78;48.788;9.010;2023-04-28T06:38:52;22.07;;;8.20;;
179;SDS011;78;48.788;9.010;2023-04-28T06:41:18;22.57;;;8.53;;
179;SDS011;78;48.788;9.010;2023-04-28T06:43:44;22.80;;;8.23;;
179;SDS011;78;48.788;9.010;2023-04-28T06:46:10;24.40;;;7.17;;
179;SDS011;78;48.788;9.010;2023-04-28T06:48:36;24.07;;;7.60;;
179;SDS011;78;48.788;9.010;2023-04-28T06:51:02;23.43;;;7.20;;
179;SDS011;78;48.788;9.010;2023-04-28T06:53:28;21.27;;;7.10;;
179;SDS011;78;48.788;9.010;2023-04-28T06:55:55;23.47;;;7.60;;
179;SDS011;78;48.788;9.010;2023-04-28T06:58:21;22.70;;;7.23;;
179;SDS011;78;48.788;9.010;2023-04-28T07:00:47;26.30;;;8.00;;
179;SDS011;78;48.788;9.010;2023-04-28T07:03:13;23.17;;;7.03;;
179;SDS011;78;48.788;9.010;2023-04-28T07:05:39;26.83;;;7.50;;
179;SDS011;78;48.788;9.010;2023-04-28T07:08:06;23.73;;;7.87;;
179;SDS011;78;48.788;9.010;2023-04-28T07:10:31;22.23;;;7.10;;
179;SDS011;78;48.788;9.010;2023-04-28T07:12:57;25.03;;;7.63;;
179;SDS011;78;48.788;9.010;2023-04-28T07:15:23;20.93;;;7.30;;
179;SDS011;78;48.788;9.010;2023-04-28T07:17:50;23.37;;;7.53;;
179;SDS011;78;48.788;9.010;2023-04-28T07:20:16;23.63;;;8.00;;
179;SDS011;78;48.788;9.010;2023-04-28T07:22:42;25.00;;;7.37;;
179;SDS011;78;48.788;9.010;2023-04-28T07:25:08;21.00;;;7.03;;
179;SDS011;78;48.788;9.010;2023-04-28T07:27:34;22.13;;;7.60;;
179;SDS011;78;48.788;9.010;2023-04-28T07:30:00;21.90;;;7.30;;
179;SDS011;78;48.788;9.010;2023-04-28T07:32:26;22.60;;;7.73;;
179;SDS011;78;48.788;9.010;2023-04-28T07:34:52;21.70;;;7.60;;
179;SDS011;78;48.788;9.010;2023-04-28T07:37:18;23.00;;;7.50;;
179;SDS011;78;48.788;9.010;2023-04-28T07:39:44;23.60;;;8.10;;
179;SDS011;78;48.788;9.010;2023-04-28T07:42:11;22.87;;;7.73;;
179;SDS011;78;48.788;9.010;2023-04-28T07:44:37;23.53;;;7.20;;
179;SDS011;78;48.788;9.010;2023-04-28T07:47:04;24.20;;;8.60;;
179;SDS011;78;48.788;9.010;2023-04-28T07:49:30;25.70;;;9.20;;
179;SDS011;78;48.788;9.010;2023-04-28T07:51:56;24.30;;;8.60;;
179;SDS011;78;48.788;9.010;2023-04-28T07:54:22;26.10;;;8.67;;
179;SDS011;78;48.788;9.010;2023-04-28T07:56:49;24.80;;;9.17;;
179;SDS011;78;48.788;9.010;2023-04-28T07:59:15;25.33;;;9.27;;
179;SDS011;78;48.788;9.010;2023-04-28T08:01:41;27.63;;;9.60;;
179;SDS011;78;48.788;9.010;2023-04-28T08:04:07;24.90;;;8.93;;
179;SDS011;78;48.788;9.010;2023-04-28T08:06:35;30.87;;;10.30;;
179;SDS011;78;48.788;9.010;2023-04-28T08:09:00;23.03;;;8.27;;
179;SDS011;78;48.788;9.010;2023-04-28T08:11:27;26.03;;;9.03;;
179;SDS011;78;48.788;9.010;2023-04-28T08:13:53;25.70;;;9.30;;
179;SDS011;78;48.788;9.010;2023-04-28T08:16:25;26.57;;;9.90;;
179;SDS011;78;48.788;9.010;2023-04-28T08:18:51;24.17;;;8.53;;
179;SDS011;78;48.788;9.010;2023-04-28T08:21:17;23.67;;;8.97;;
179;SDS011;78;48.788;9.010;2023-04-28T08:23:43;24.07;;;8.57;;
179;SDS011;78;48.788;9.010;2023-04-28T08:26:08;25.07;;;9.23;;
179;SDS011;78;48.788;9.010;2023-04-28T08:28:34;23.63;;;8.57;;
179;SDS011;78;48.788;9.010;2023-04-28T08:31:00;21.47;;;7.80;;
179;SDS011;78;48.788;9.010;2023-04-28T08:33:26;24.00;;;8.70;;
179;SDS011;78;48.788;9.010;2023-04-28T08:35:53;22.27;;;8.43;;
179;SDS011;78;48.788;9.010;2023-04-28T08:38:20;22.47;;;6.80;;
179;SDS011;78;48.788;9.010;2023-04-28T08:40:48;22.77;;;7.10;;
179;SDS011;78;48.788;9.010;2023-04-28T08:43:15;20.50;;;7.20;;
179;SDS011;78;48.788;9.010;2023-04-28T08:45:41;20.07;;;6.83;;
179;SDS011;78;48.788;9.010;2023-04-28T08:48:12;23.43;;;7.07;;
179;SDS011;78;48.788;9.010;2023-04-28T08:50:40;21.50;;;6.90;;
179;SDS011;78;48.788;9.010;2023-04-28T08:53:08;21.40;;;7.20;;
179;SDS011;78;48.788;9.010;2023-04-28T08:55:35;27.10;;;8.00;;
179;SDS011;78;48.788;9.010;2023-04-28T08:58:02;23.80;;;7.10;;
179;SDS011;78;48.788;9.010;2023-04-28T09:00:28;23.53;;;7.13;;
179;SDS011;78;48.788;9.010;2023-04-28T09:02:54;24.37;;;7.53;;
179;SDS011;78;48.788;9.010;2023-04-28T09:05:20;25.23;;;7.83;;
179;SDS011;78;48.788;9.010;2023-04-28T09:07:46;21.40;;;6.80;;
179;SDS011;78;48.788;9.010;2023-04-28T09:12:45;24.20;;;7.40;;
179;SDS011;78;48.788;9.010;2023-04-28T09:15:24;21.90;;;6.40;;
179;SDS011;78;48.788;9.010;2023-04-28T09:17:50;22.43;;;7.30;;
179;SDS011;78;48.788;9.010;2023-04-28T09:20:23;20.63;;;6.30;;
179;SDS011;78;48.788;9.010;2023-04-28T09:22:50;21.10;;;6.40;;
179;SDS011;78;48.788;9.010;2023-04-28T09:25:17;20.80;;;5.60;;
179;SDS011;78;48.788;9.010;2023-04-28T09:27:44;22.10;;;6.23;;
179;SDS011;78;48.788;9.010;2023-04-28T09:30:10;18.40;;;4.87;;
179;SDS011;78;48.788;9.010;2023-04-28T09:32:36;15.87;;;3.80;;
179;SDS011;78;48.788;9.010;2023-04-28T09:35:02;16.67;;;3.80;;
179;SDS011;78;48.788;9.010;2023-04-28T09:37:29;16.63;;;4.07;;
179;SDS011;78;48.788;9.010;2023-04-28T09:39:56;16.33;;;3.57;;
179;SDS011;78;48.788;9.010;2023-04-28T09:42:40;16.20;;;3.60;;
179;SDS011;78;48.788;9.010;2023-04-28T09:45:10;17.03;;;3.47;;
179;SDS011;78;48.788;9.010;2023-04-28T09:47:37;16.03;;;3.23;;
179;SDS011;78;48.788;9.010;2023-04-28T09:50:04;16.90;;;3.17;;
179;SDS011;78;48.788;9.010;2023-04-28T09:52:33;15.10;;;3.10;;
179;SDS011;78;48.788;9.010;2023-04-28T09:55:00;15.97;;;2.90;;
179;SDS011;78;48.788;9.010;2023-04-28T09:57:29;14.90;;;3.10;;
179;SDS011;78;48.788;9.010;2023-04-28T09:59:56;14.60;;;2.90;;
179;SDS011;78;48.788;9.010;2023-04-28T10:02:24;14.77;;;3.00;;
179;SDS011;78;48.788;9.010;2023-04-28T10:04:50;16.30;;;3.20;;
179;SDS011;78;48.788;9.010;2023-04-28T10:07:17;15.97;;;3.17;;
179;SDS011;78;48.788;9.010;2023-04-28T10:09:45;16.70;;;3.20;;
179;SDS011;78;48.788;9.010;2023-04-28T10:12:17;14.83;;;3.00;;
179;SDS011;78;48.788;9.010;2023-04-28T10:14:44;15.40;;;3.23;;
179;SDS011;78;48.788;9.010;2023-04-28T10:17:11;15.43;;;2.97;;
179;SDS011;78;48.788;9.010;2023-04-28T10:19:39;18.47;;;3.10;;
179;SDS011;78;48.788;9.010;2023-04-28T10:24:32;15.07;;;2.80;;
179;SDS011;78;48.788;9.010;2023-04-28T10:27:02;15.33;;;2.50;;
179;SDS011;78;48.788;9.010;2023-04-28T10:29:30;13.80;;;2.10;;
179;SDS011;78;48.788;9.010;2023-04-28T10:32:16;13.80;;;2.00;;
179;SDS011;78;48.788;9.010;2023-04-28T10:34:43;13.57;;;1.80;;
179;SDS011;78;48.788;9.010;2023-04-28T10:37:09;15.10;;;1.90;;
179;SDS011;78;48.788;9.010;2023-04-28T10:39:36;13.63;;;1.90;;
179;SDS011;78;48.788;9.010;2023-04-28T10:42:03;16.67;;;2.10;;
179;SDS011;78;48.788;9.010;2023-04-28T10:55:30;15.00;;;1.77;;
179;SDS011;78;48.788;9.010;2023-04-28T11:00:44;13.67;;;2.07;;
179;SDS011;78;48.788;9.010;2023-04-28T11:08:41;13.47;;;1.70;;
179;SDS011;78;48.788;9.010;2023-04-28T11:11:10;14.50;;;2.00;;
179;SDS011;78;48.788;9.010;2023-04-28T11:13:38;13.90;;;1.83;;
179;SDS011;78;48.788;9.010;2023-04-28T11:16:04;14.00;;;1.70;;
179;SDS011;78;48.788;9.010;2023-04-28T11:21:08;14.20;;;2.00;;
179;SDS011;78;48.788;9.010;2023-04-28T11:23:34;13.73;;;1.70;;
179;SDS011;78;48.788;9.010;2023-04-28T11:26:01;14.03;;;1.80;;
179;SDS011;78;48.788;9.010;2023-04-28T11:28:27;16.27;;;2.00;;
179;SDS011;78;48.788;9.010;2023-04-28T11:31:09;14.40;;;1.80;;
179;SDS011;78;48.788;9.010;2023-04-28T11:33:35;14.17;;;1.90;;
179;SDS011;78;48.788;9.010;2023-04-28T11:36:04;14.00;;;1.73;;
179;SDS011;78;48.788;9.010;2023-04-28T11:38:41;14.30;;;1.87;;
179;SDS011;78;48.788;9.010;2023-04-28T11:41:07;16.50;;;1.80;;
179;SDS011;78;48.788;9.010;2023-04-28T11:43:33;13.83;;;1.90;;
179;SDS011;78;48.788;9.010;2023-04-28T11:46:00;14.10;;;1.80;;
179;SDS011;78;48.788;9.010;2023-04-28T11:48:26;15.60;;;2.00;;
179;SDS011;78;48.788;9.010;2023-04-28T11:50:52;14.70;;;2.20;;
179;SDS011;78;48.788;9.010;2023-04-28T11:53:18;14.70;;;1.90;;
179;SDS011;78;48.788;9.010;2023-04-28T11:55:44;14.83;;;1.90;;
179;SDS011;78;48.788;9.010;2023-04-28T11:58:18;15.97;;;1.90;;
179;SDS011;78;48.788;9.010;2023-04-28T12:01:04;13.50;;;1.80;;
179;SDS011;78;48.788;9.010;2023-04-28T12:03:30;13.70;;;1.80;;
179;SDS011;78;48.788;9.010;2023-04-28T12:05:56;14.30;;;2.10;;
179;SDS011;78;48.788;9.010;2023-04-28T12:08:29;15.47;;;2.00;;
179;SDS011;78;48.788;9.010;2023-04-28T12:11:07;14.00;;;1.90;;
179;SDS011;78;48.788;9.010;2023-04-28T12:13:42;14.10;;;1.77;;
179;SDS011;78;48.788;9.010;2023-04-28T12:16:08;13.90;;;1.87;;
179;SDS011;78;48.788;9.010;2023-04-28T12:18:34;16.40;;;2.10;;
179;SDS011;78;48.788;9.010;2023-04-28T12:21:01;14.70;;;2.10;;
179;SDS011;78;48.788;9.010;2023-04-28T12:23:34;13.47;;;1.80;;
179;SDS011;78;48.788;9.010;2023-04-28T12:26:01;17.80;;;2.07;;
179;SDS011;78;48.788;9.010;2023-04-28T12:28:37;18.07;;;2.10;;
179;SDS011;78;48.788;9.010;2023-04-28T12:31:04;14.67;;;1.90;;
179;SDS011;78;48.788;9.010;2023-04-28T12:33:31;14.80;;;2.10;;
179;SDS011;78;48.788;9.010;2023-04-28T12:36:02;14.50;;;2.00;;
179;SDS011;78;48.788;9.010;2023-04-28T12:38:29;15.80;;;2.00;;
179;SDS011;78;48.788;9.010;2023-04-28T12:40:56;13.40;;;1.80;;
179;SDS011;78;48.788;9.010;2023-04-28T12:43:23;14.70;;;1.90;;
179;SDS011;78;48.788;9.010;2023-04-28T12:45:50;13.50;;;1.87;;
179;SDS011;78;48.788;9.010;2023-04-28T12:48:20;14.87;;;1.80;;
179;SDS011;78;48.788;9.010;2023-04-28T12:50:48;14.30;;;2.00;;
179;SDS011;78;48.788;9.010;2023-04-28T12:53:15;14.00;;;1.80;;
179;SDS011;78;48.788;9.010;2023-04-28T12:55:41;23.40;;;2.10;;
179;SDS011;78;48.788;9.010;2023-04-28T12:58:07;15.90;;;1.70;;
179;SDS011;78;48.788;9.010;2023-04-28T13:00:33;19.43;;;1.97;;
179;SDS011;78;48.788;9.010;2023-04-28T13:02:59;13.60;;;1.87;;
179;SDS011;78;48.788;9.010;2023-04-28T13:05:25;14.40;;;2.00;;
179;SDS011;78;48.788;9.010;2023-04-28T13:07:52;14.63;;;2.10;;
179;SDS011;78;48.788;9.010;2023-04-28T13:10:18;16.57;;;2.00;;
179;SDS011;78;48.788;9.010;2023-04-28T13:12:46;16.80;;;1.90;;
179;SDS011;78;48.788;9.010;2023-04-28T13:15:12;14.10;;;1.93;;
179;SDS011;78;48.788;9.010;2023-04-28T13:17:38;14.63;;;1.93;;
179;SDS011;78;48.788;9.010;2023-04-28T13:20:04;13.30;;;1.60;;
179;SDS011;78;48.788;9.010;2023-04-28T13:22:31;13.33;;;1.70;;
179;SDS011;78;48.788;9.010;2023-04-28T13:24:57;13.33;;;1.70;;
179;SDS011;78;48.788;9.010;2023-04-28T13:27:23;13.67;;;1.90;;
179;SDS011;78;48.788;9.010;2023-04-28T13:29:49;14.37;;;1.80;;
179;SDS011;78;48.788;9.010;2023-04-28T13:32:15;13.60;;;1.77;;
179;SDS011;78;48.788;9.010;2023-04-28T13:34:41;13.30;;;1.70;;
179;SDS011;78;48.788;9.010;2023-04-28T13:37:08;14.10;;;1.80;;
179;SDS011;78;48.788;9.010;2023-04-28T13:39:34;13.53;;;1.70;;
179;SDS011;78;48.788;9.010;2023-04-28T13:42:00;16.03;;;2.10;;
179;SDS011;78;48.788;9.010;2023-04-28T13:44:26;15.30;;;1.87;;
179;SDS011;78;48.788;9.010;2023-04-28T13:46:52;13.80;;;1.80;;
179;SDS011;78;48.788;9.010;2023-04-28T13:49:18;13.77;;;1.90;;
179;SDS011;78;48.788;9.010;2023-04-28T13:51:46;14.20;;;2.10;;
179;SDS011;78;48.788;9.010;2023-04-28T13:54:12;14.73;;;1.90;;
179;SDS011;78;48.788;9.010;2023-04-28T13:56:38;14.53;;;2.00;;
179;SDS011;78;48.788;9.010;2023-04-28T13:59:04;13.57;;;1.80;;
179;SDS011;78;48.788;9.010;2023-04-28T14:01:30;14.40;;;1.90;;
179;SDS011;78;48.788;9.010;2023-04-28T14:03:56;14.00;;;1.70;;
179;SDS011;78;48.788;9.010;2023-04-28T14:06:22;14.07;;;1.80;;
179;SDS011;78;48.788;9.010;2023-04-28T14:08:48;15.30;;;1.90;;
179;SDS011;78;48.788;9.010;2023-04-28T14:11:15;14.00;;;1.90;;
179;SDS011;78;48.788;9.010;2023-04-28T14:13:41;14.10;;;1.90;;
179;SDS011;78;48.788;9.010;2023-04-28T14:16:07;15.30;;;2.13;;
179;SDS011;78;48.788;9.010;2023-04-28T14:18:33;16.07;;;2.10;;
179;SDS011;78;48.788;9.010;2023-04-28T14:20:59;16.33;;;2.20;;
179;SDS011;78;48.788;9.010;2023-04-28T14:23:26;14.30;;;1.97;;
179;SDS011;78;48.788;9.010;2023-04-28T14:25:53;16.47;;;2.07;;
179;SDS011;78;48.788;9.010;2023-04-28T14:28:20;15.93;;;2.20;;
179;SDS011;78;48.788;9.010;2023-04-28T14:30:46;14.90;;;1.97;;
179;SDS011;78;48.788;9.010;2023-04-28T14:33:13;15.57;;;1.90;;
179;SDS011;78;48.788;9.010;2023-04-28T14:35:42;15.70;;;1.83;;
179;SDS011;78;48.788;9.010;2023-04-28T14:38:08;14.07;;;1.60;;
179;SDS011;78;48.788;9.010;2023-04-28T14:40:34;15.17;;;1.70;;
179;SDS011;78;48.788;9.010;2023-04-28T14:43:00;14.10;;;1.70;;
179;SDS011;78;48.788;9.010;2023-04-28T14:45:26;15.23;;;1.70;;
179;SDS011;78;48.788;9.010;2023-04-28T14:47:52;14.87;;;1.60;;
179;SDS011;78;48.788;9.010;2023-04-28T14:50:18;14.97;;;1.63;;
179;SDS011;78;48.788;9.010;2023-04-28T14:52:44;13.70;;;1.80;;
179;SDS011;78;48.788;9.010;2023-04-28T14:55:10;16.40;;;2.00;;
179;SDS011;78;48.788;9.010;2023-04-28T14:57:37;14.20;;;1.90;;
179;SDS011;78;48.788;9.010;2023-04-28T15:00:04;15.60;;;1.90;;
179;SDS011;78;48.788;9.010;2023-04-28T15:02:31;13.90;;;1.80;;
179;SDS011;78;48.788;9.010;2023-04-28T15:04:57;14.37;;;1.80;;
179;SDS011;78;48.788;9.010;2023-04-28T15:07:23;13.87;;;1.80;;
179;SDS011;78;48.788;9.010;2023-04-28T15:09:55;14.40;;;1.70;;
179;SDS011;78;48.788;9.010;2023-04-28T15:12:22;13.47;;;1.87;;
179;SDS011;78;48.788;9.010;2023-04-28T15:14:48;16.47;;;1.97;;
179;SDS011;78;48.788;9.010;2023-04-28T15:17:15;15.03;;;1.90;;
179;SDS011;78;48.788;9.010;2023-04-28T15:19:40;14.10;;;1.90;;
179;SDS011;78;48.788;9.010;2023-04-28T15:22:06;13.20;;;1.60;;
179;SDS011;78;48.788;9.010;2023-04-28T15:24:32;17.27;;;3.40;;
179;SDS011;78;48.788;9.010;2023-04-28T15:26:58;16.90;;;4.03;;
179;SDS011;78;48.788;9.010;2023-04-28T15:29:27;13.50;;;1.80;;
179;SDS011;78;48.788;9.010;2023-04-28T15:31:53;15.13;;;1.80;;
179;SDS011;78;48.788;9.010;2023-04-28T15:34:20;13.87;;;1.97;;
179;SDS011;78;48.788;9.010;2023-04-28T15:36:46;15.83;;;1.60;;
179;SDS011;78;48.788;9.010;2023-04-28T15:39:12;13.37;;;1.73;;
179;SDS011;78;48.788;9.010;2023-04-28T15:41:40;14.40;;;2.00;;
179;SDS011;78;48.788;9.010;2023-04-28T15:44:06;15.40;;;2.20;;
179;SDS011;78;48.788;9.010;2023-04-28T15:46:35;13.37;;;1.60;;
179;SDS011;78;48.788;9.010;2023-04-28T15:49:02;14.87;;;1.70;;
179;SDS011;78;48.788;9.010;2023-04-28T15:51:29;12.93;;;1.50;;
179;SDS011;78;48.788;9.010;2023-04-28T15:53:55;14.00;;;2.00;;
179;SDS011;78;48.788;9.010;2023-04-28T15:56:22;14.07;;;1.77;;
179;SDS011;78;48.788;9.010;2023-04-28T15:58:49;13.80;;;1.80;;
179;SDS011;78;48.788;9.010;2023-04-28T16:01:15;13.50;;;1.57;;
179;SDS011;78;48.788;9.010;2023-04-28T16:03:48;13.80;;;1.60;;
179;SDS011;78;48.788;9.010;2023-04-28T16:06:14;13.33;;;1.83;;
179;SDS011;78;48.788;9.010;2023-04-28T16:08:40;15.30;;;2.23;;